createdAt,value
2023-04-15T00:02:23.336Z,65.50
2023-04-15T00:04:51.405Z,65.60
2023-04-15T00:07:19.371Z,65.60
2023-04-15T00:09:48.610Z,65.70
2023-04-15T00:12:16.475Z,65.90
2023-04-15T00:14:44.986Z,65.80
2023-04-15T00:17:13.211Z,65.70
2023-04-15T00:19:41.729Z,65.70
2023-04-15T00:22:09.584Z,65.80
2023-04-15T00:24:37.496Z,65.90
2023-04-15T00:27:06.839Z,66.00
2023-04-15T00:29:34.869Z,65.80
2023-04-15T00:32:02.746Z,65.50
2023-04-15T00:34:30.619Z,65.10
2023-04-15T00:36:58.498Z,65.00
2023-04-15T00:39:26.388Z,65.10
2023-04-15T00:41:54.304Z,65.40
2023-04-15T00:44:23.923Z,65.30
2023-04-15T00:46:52.952Z,65.40
2023-04-15T00:49:20.865Z,65.40
2023-04-15T00:51:49.075Z,65.40
2023-04-15T00:54:17.235Z,65.70
2023-04-15T00:56:45.163Z,65.80
2023-04-15T00:59:13.053Z,65.60
2023-04-15T01:01:42.921Z,65.60
2023-04-15T01:04:12.275Z,65.70
2023-04-15T01:06:40.274Z,65.70
2023-04-15T01:09:08.215Z,65.90
2023-04-15T01:11:36.148Z,65.90
2023-04-15T01:14:04.113Z,65.70
2023-04-15T01:16:32.326Z,65.30
2023-04-15T01:19:02.062Z,65.10
2023-04-15T01:21:30.266Z,65.10
2023-04-15T01:23:58.400Z,65.30
2023-04-15T01:26:28.167Z,65.30
2023-04-15T01:28:56.320Z,65.20
2023-04-15T01:31:25.273Z,65.20
2023-04-15T01:33:53.172Z,65.40
2023-04-15T01:36:21.236Z,65.50
2023-04-15T01:38:49.150Z,65.70
2023-04-15T01:41:17.254Z,65.60
2023-04-15T01:43:47.203Z,65.50
2023-04-15T01:46:15.127Z,65.50
2023-04-15T01:48:43.131Z,65.70
2023-04-15T01:51:11.399Z,66.40
2023-04-15T01:53:39.316Z,66.00
2023-04-15T01:56:08.205Z,65.90
2023-04-15T01:58:36.544Z,65.50
2023-04-15T02:01:06.012Z,65.20
2023-04-15T02:03:37.300Z,65.10
2023-04-15T02:06:06.106Z,65.10
2023-04-15T02:08:34.132Z,65.30
2023-04-15T02:11:02.198Z,65.30
2023-04-15T02:13:30.159Z,65.20
2023-04-15T02:15:59.280Z,65.30
2023-04-15T02:18:28.491Z,65.50
2023-04-15T02:20:57.204Z,65.50
2023-04-15T02:23:25.430Z,65.70
2023-04-15T02:25:54.442Z,65.60
2023-04-15T02:28:22.487Z,65.60
2023-04-15T02:30:52.678Z,65.60
2023-04-15T02:33:20.900Z,65.70
2023-04-15T02:35:50.171Z,65.70
2023-04-15T02:38:18.091Z,65.90
2023-04-15T02:40:46.195Z,65.60
2023-04-15T02:43:14.319Z,65.40
2023-04-15T02:45:43.517Z,65.20
2023-04-15T02:48:11.555Z,65.00
2023-04-15T02:50:40.702Z,65.20
2023-04-15T02:53:11.700Z,65.40
2023-04-15T02:55:40.014Z,65.10
2023-04-15T02:58:08.030Z,65.10
2023-04-15T03:00:36.218Z,65.30
2023-04-15T03:03:05.310Z,65.30
2023-04-15T03:05:33.520Z,65.50
2023-04-15T03:08:04.006Z,65.60
2023-04-15T03:10:33.560Z,65.50
2023-04-15T03:13:03.032Z,65.20
2023-04-15T03:15:31.025Z,64.90
2023-04-15T03:17:59.055Z,64.80
2023-04-15T03:20:27.499Z,64.90
2023-04-15T03:22:55.456Z,65.10
2023-04-15T03:25:25.045Z,65.00
2023-04-15T03:27:54.307Z,64.90
2023-04-15T03:30:22.438Z,65.00
2023-04-15T03:32:50.627Z,65.10
2023-04-15T03:35:18.784Z,65.40
2023-04-15T03:37:46.900Z,65.40
2023-04-15T03:40:14.891Z,65.20
2023-04-15T03:42:42.808Z,65.30
2023-04-15T03:45:12.864Z,65.40
2023-04-15T03:47:40.940Z,65.50
2023-04-15T03:50:09.422Z,65.70
2023-04-15T03:52:37.387Z,65.40
2023-04-15T03:55:05.768Z,65.40
2023-04-15T03:57:37.978Z,65.50
2023-04-15T04:00:07.228Z,65.60
2023-04-15T04:02:41.311Z,65.60
2023-04-15T04:05:10.881Z,65.80
2023-04-15T04:07:38.801Z,65.50
2023-04-15T04:10:07.860Z,65.20
2023-04-15T04:12:35.928Z,64.90
2023-04-15T04:15:03.883Z,64.60
2023-04-15T04:17:31.805Z,64.60
2023-04-15T04:20:01.181Z,64.90
2023-04-15T04:22:29.068Z,65.00
2023-04-15T04:24:57.073Z,64.80
2023-04-15T04:27:25.013Z,64.90
2023-04-15T04:29:52.922Z,65.00
2023-04-15T04:32:20.925Z,65.10
2023-04-15T04:34:49.066Z,65.30
2023-04-15T04:37:18.391Z,65.20
2023-04-15T04:39:46.281Z,65.20
2023-04-15T04:42:14.157Z,65.30
2023-04-15T04:44:42.055Z,65.40
2023-04-15T04:47:09.932Z,65.40
2023-04-15T04:49:37.848Z,65.60
2023-04-15T04:52:05.760Z,65.40
2023-04-15T04:54:34.989Z,65.10
2023-04-15T04:57:02.992Z,64.70
2023-04-15T04:59:30.878Z,64.70
2023-04-15T05:01:58.825Z,64.80
2023-04-15T05:04:27.144Z,65.10
2023-04-15T05:06:55.106Z,64.80
2023-04-15T05:09:23.020Z,64.80
2023-04-15T05:11:52.268Z,65.00
2023-04-15T05:14:21.711Z,65.00
2023-04-15T05:16:50.821Z,65.10
2023-04-15T05:19:18.727Z,65.40
2023-04-15T05:21:46.632Z,65.10
2023-04-15T05:24:14.564Z,65.10
2023-04-15T05:26:42.940Z,65.20
2023-04-15T05:29:12.314Z,65.30
2023-04-15T05:31:40.438Z,65.40
2023-04-15T05:34:08.490Z,65.40
2023-04-15T05:36:36.564Z,65.30
2023-04-15T05:39:04.911Z,64.90
2023-04-15T05:41:32.791Z,64.60
2023-04-15T05:44:00.661Z,64.40
2023-04-15T05:46:30.135Z,64.80
2023-04-15T05:48:58.069Z,64.80
2023-04-15T05:51:26.356Z,64.80
2023-04-15T05:53:54.231Z,64.80
2023-04-15T05:56:22.201Z,64.80
2023-04-15T05:58:50.984Z,65.00
2023-04-15T06:01:20.657Z,65.30
2023-04-15T06:03:50.102Z,65.30
2023-04-15T06:06:18.121Z,65.00
2023-04-15T06:08:46.191Z,65.10
2023-04-15T06:11:14.180Z,65.20
2023-04-15T06:13:42.094Z,65.30
2023-04-15T06:16:10.045Z,65.50
2023-04-15T06:18:37.916Z,65.30
2023-04-15T06:21:07.956Z,65.10
2023-04-15T06:23:36.256Z,65.10
2023-04-15T06:26:04.233Z,65.20
2023-04-15T06:28:32.173Z,65.30
2023-04-15T06:31:00.103Z,65.50
2023-04-15T06:33:27.998Z,65.40
2023-04-15T06:35:55.830Z,65.20
2023-04-15T06:38:25.147Z,64.80
2023-04-15T06:40:53.102Z,64.60
2023-04-15T06:43:21.078Z,64.50
2023-04-15T06:45:49.020Z,64.70
2023-04-15T06:48:17.651Z,64.80
2023-04-15T06:50:45.556Z,64.60
2023-04-15T06:53:13.473Z,64.80
2023-04-15T06:55:42.770Z,64.90
2023-04-15T06:58:10.786Z,65.00
2023-04-15T07:00:39.387Z,65.30
2023-04-15T07:03:10.222Z,65.20
2023-04-15T07:05:38.383Z,65.00
2023-04-15T07:08:06.754Z,65.10
2023-04-15T07:10:34.771Z,65.20
2023-04-15T07:13:05.532Z,65.30
2023-04-15T07:15:33.439Z,65.60
2023-04-15T07:18:01.743Z,65.60
2023-04-15T07:20:29.699Z,65.20
2023-04-15T07:22:57.697Z,65.00
2023-04-15T07:25:25.627Z,64.70
2023-04-15T07:27:54.096Z,64.80
2023-04-15T07:30:23.368Z,65.10
2023-04-15T07:32:51.295Z,65.10
2023-04-15T07:35:21.316Z,64.90
2023-04-15T07:37:49.301Z,65.10
2023-04-15T07:40:17.304Z,65.20
2023-04-15T07:42:45.243Z,65.30
2023-04-15T07:45:13.823Z,65.60
2023-04-15T07:47:43.138Z,65.40
2023-04-15T07:50:11.659Z,65.20
2023-04-15T07:52:40.083Z,65.30
2023-04-15T07:55:08.646Z,65.50
2023-04-15T07:57:36.805Z,65.40
2023-04-15T08:00:07.409Z,65.70
2023-04-15T08:02:41.698Z,65.60
2023-04-15T08:05:12.679Z,65.40
2023-04-15T08:07:43.595Z,65.10
2023-04-15T08:10:12.028Z,64.80
2023-04-15T08:12:39.940Z,64.80
2023-04-15T08:15:09.148Z,65.10
2023-04-15T08:17:37.104Z,65.00
2023-04-15T08:20:06.596Z,64.90
2023-04-15T08:22:36.362Z,65.10
2023-04-15T08:25:04.439Z,65.20
2023-04-15T08:27:32.386Z,65.30
2023-04-15T08:30:02.132Z,65.60
2023-04-15T08:32:31.550Z,65.50
2023-04-15T08:34:59.514Z,65.40
2023-04-15T08:37:27.759Z,65.60
2023-04-15T08:39:56.998Z,65.60
2023-04-15T08:42:28.955Z,65.60
2023-04-15T08:44:56.859Z,65.80
2023-04-15T08:47:24.829Z,65.70
2023-04-15T08:49:53.923Z,65.30
2023-04-15T08:52:22.494Z,65.20
2023-04-15T08:54:50.372Z,65.20
2023-04-15T08:57:19.630Z,65.30
2023-04-15T08:59:47.559Z,65.60
2023-04-15T09:02:15.936Z,65.40
2023-04-15T09:04:43.872Z,65.50
2023-04-15T09:07:12.014Z,65.60
2023-04-15T09:09:40.254Z,65.70
2023-04-15T09:12:08.144Z,65.70
2023-04-15T09:14:39.877Z,65.90
2023-04-15T09:17:07.805Z,65.70
2023-04-15T09:19:35.669Z,65.80
2023-04-15T09:22:03.598Z,65.80
2023-04-15T09:24:37.360Z,65.80
2023-04-15T09:27:05.478Z,66.00
2023-04-15T09:29:35.032Z,66.10
2023-04-15T09:32:14.426Z,65.90
2023-04-15T09:34:42.385Z,65.50
2023-04-15T09:37:31.276Z,65.10
2023-04-15T09:40:02.896Z,65.00
2023-04-15T09:42:30.959Z,65.20
2023-04-15T09:45:09.499Z,65.20
2023-04-15T09:47:38.807Z,65.20
2023-04-15T09:50:07.715Z,65.30
2023-04-15T09:52:38.339Z,65.60
2023-04-15T09:55:10.020Z,65.60
2023-04-15T09:57:38.332Z,65.70
2023-04-15T10:00:08.245Z,65.60
2023-04-15T10:02:38.496Z,65.70
2023-04-15T10:05:07.217Z,65.80
2023-04-15T10:07:36.850Z,65.90
2023-04-15T10:10:05.423Z,66.00
2023-04-15T10:12:33.552Z,66.10
2023-04-15T10:15:04.920Z,66.00
2023-04-15T10:17:35.310Z,65.60
2023-04-15T10:20:07.692Z,65.40
2023-04-15T10:22:35.594Z,65.40
2023-04-15T10:25:04.177Z,65.60
2023-04-15T10:27:32.034Z,65.70
2023-04-15T10:29:59.978Z,65.70
2023-04-15T10:32:27.890Z,65.80
2023-04-15T10:34:55.812Z,65.80
2023-04-15T10:37:35.228Z,65.90
2023-04-15T10:40:03.790Z,66.00
2023-04-15T10:42:35.571Z,66.10
2023-04-15T10:45:04.079Z,65.90
2023-04-15T10:47:32.602Z,65.90
2023-04-15T10:50:01.320Z,65.90
2023-04-15T10:52:30.584Z,65.50
2023-04-15T10:55:05.356Z,65.60
2023-04-15T10:57:39.351Z,65.70
2023-04-15T11:00:14.546Z,65.80
2023-04-15T11:02:47.130Z,65.50
2023-04-15T11:05:15.595Z,63.80
2023-04-15T11:07:54.580Z,63.90
2023-04-15T11:10:55.826Z,64.10
2023-04-15T11:13:31.361Z,64.60
2023-04-15T11:16:01.366Z,63.60
2023-04-15T11:18:33.763Z,63.60
2023-04-15T11:21:03.556Z,63.80
2023-04-15T11:23:37.468Z,64.10
2023-04-15T11:26:09.129Z,64.00
2023-04-15T11:28:38.903Z,64.90
2023-04-15T11:31:08.476Z,63.70
2023-04-15T11:33:36.401Z,63.90
2023-04-15T11:36:04.530Z,63.00
2023-04-15T11:38:32.513Z,63.10
2023-04-15T11:41:03.746Z,63.10
2023-04-15T11:43:35.285Z,64.90
2023-04-15T11:46:03.730Z,64.80
2023-04-15T11:48:32.645Z,64.50
2023-04-15T11:51:01.223Z,64.30
2023-04-15T11:53:38.070Z,63.50
2023-04-15T11:56:08.642Z,63.90
2023-04-15T11:58:37.459Z,64.50
2023-04-15T12:01:06.014Z,64.00
2023-04-15T12:03:38.344Z,64.30
2023-04-15T12:06:12.314Z,64.50
2023-04-15T12:09:00.024Z,64.60
2023-04-15T12:11:33.727Z,64.70
2023-04-15T12:14:05.337Z,64.80
2023-04-15T12:16:36.987Z,64.60
2023-04-15T12:19:16.317Z,64.80
2023-04-15T12:21:46.701Z,64.90
2023-04-15T12:24:14.623Z,65.00
2023-04-15T12:26:47.820Z,65.20
2023-04-15T12:29:16.446Z,64.90
2023-04-15T12:31:51.662Z,65.20
2023-04-15T12:34:20.900Z,65.10
2023-04-15T12:36:48.890Z,65.00
2023-04-15T12:39:16.803Z,65.20
2023-04-15T12:41:44.692Z,65.40
2023-04-15T12:44:16.571Z,65.20
2023-04-15T12:46:44.521Z,65.10
2023-04-15T12:49:14.646Z,64.70
2023-04-15T12:51:42.598Z,64.20
2023-04-15T12:54:10.486Z,64.30
2023-04-15T12:56:38.355Z,64.60
2023-04-15T12:59:06.303Z,64.50
2023-04-15T13:01:38.665Z,64.40
2023-04-15T13:04:06.772Z,64.50
2023-04-15T13:06:34.944Z,64.50
2023-04-15T13:09:06.333Z,64.80
2023-04-15T13:11:34.536Z,65.10
2023-04-15T13:14:02.694Z,64.80
2023-04-15T13:16:31.965Z,64.90
2023-04-15T13:19:01.523Z,65.00
2023-04-15T13:21:29.554Z,65.00
2023-04-15T13:23:57.430Z,65.10
2023-04-15T13:26:25.412Z,65.30
2023-04-15T13:28:53.303Z,65.00
2023-04-15T13:31:21.414Z,65.00
2023-04-15T13:33:49.390Z,65.10
2023-04-15T13:36:18.663Z,65.20
2023-04-15T13:38:47.535Z,65.20
2023-04-15T13:41:17.050Z,65.50
2023-04-15T13:43:45.894Z,65.30
2023-04-15T13:46:13.920Z,64.90
2023-04-15T13:48:41.992Z,64.70
2023-04-15T13:51:09.962Z,64.10
2023-04-15T13:53:39.805Z,64.30
2023-04-15T13:56:08.511Z,64.70
2023-04-15T13:58:41.248Z,64.50
2023-04-15T14:01:09.350Z,64.70
2023-04-15T14:03:37.438Z,64.80
2023-04-15T14:06:06.064Z,64.90
2023-04-15T14:08:34.107Z,65.10
2023-04-15T14:11:03.366Z,65.10
2023-04-15T14:13:31.222Z,65.10
2023-04-15T14:15:59.121Z,65.00
2023-04-15T14:18:27.133Z,65.20
2023-04-15T14:20:55.057Z,65.30
2023-04-15T14:23:23.026Z,65.40
2023-04-15T14:25:51.665Z,65.40
2023-04-15T14:28:20.947Z,65.30
2023-04-15T14:30:48.884Z,65.40
2023-04-15T14:33:16.994Z,65.40
2023-04-15T14:35:44.881Z,65.30
2023-04-15T14:38:12.764Z,65.20
2023-04-15T14:40:41.628Z,64.40
2023-04-15T14:43:09.704Z,64.00
2023-04-15T14:45:41.830Z,63.60
2023-04-15T14:48:14.497Z,63.50
2023-04-15T14:50:42.541Z,63.80
2023-04-15T14:53:11.471Z,63.60
2023-04-15T14:55:39.597Z,63.50
2023-04-15T14:58:08.177Z,63.80
2023-04-15T15:00:40.283Z,64.00
2023-04-15T15:03:13.017Z,64.10
2023-04-15T15:05:42.831Z,64.10
2023-04-15T15:08:11.062Z,64.00
2023-04-15T15:10:48.234Z,63.90
2023-04-15T15:13:17.562Z,64.20
2023-04-15T15:15:45.763Z,64.30
2023-04-15T15:18:15.047Z,64.30
2023-04-15T15:20:42.952Z,64.30
2023-04-15T15:23:10.875Z,64.10
2023-04-15T15:25:38.759Z,63.90
2023-04-15T15:28:06.916Z,64.10
2023-04-15T15:30:34.861Z,64.30
2023-04-15T15:33:02.824Z,64.30
2023-04-15T15:35:32.279Z,64.30
2023-04-15T15:38:03.748Z,64.00
2023-04-15T15:40:31.743Z,63.90
2023-04-15T15:42:59.717Z,63.60
2023-04-15T15:45:27.576Z,63.30
2023-04-15T15:47:57.045Z,63.20
2023-04-15T15:50:25.271Z,63.40
2023-04-15T15:52:55.123Z,63.30
2023-04-15T15:55:25.121Z,63.30
2023-04-15T15:57:53.257Z,63.50
2023-04-15T16:00:21.821Z,63.70
2023-04-15T16:05:22.593Z,64.00
2023-04-15T16:07:52.420Z,63.90
2023-04-15T16:10:22.262Z,63.90
2023-04-15T16:12:50.650Z,64.00
2023-04-15T16:15:18.742Z,64.00
2023-04-15T16:17:46.831Z,64.10
2023-04-15T16:20:14.877Z,64.20
2023-04-15T16:22:42.906Z,64.30
2023-04-15T16:25:11.237Z,63.90
2023-04-15T16:28:03.453Z,63.60
2023-04-15T16:30:37.899Z,63.50
2023-04-15T16:33:06.247Z,63.70
2023-04-15T16:35:34.904Z,63.80
2023-04-15T16:38:03.056Z,63.70
2023-04-15T16:40:32.386Z,63.70
2023-04-15T16:43:07.264Z,63.70
2023-04-15T16:45:35.237Z,63.80
2023-04-15T16:48:03.232Z,63.90
2023-04-15T16:50:31.419Z,64.00
2023-04-15T16:52:59.340Z,63.80
2023-04-15T16:55:27.755Z,63.70
2023-04-15T16:58:02.620Z,63.40
2023-04-15T17:00:33.300Z,63.50
2023-04-15T17:03:01.839Z,63.60
2023-04-15T17:05:30.521Z,63.50
2023-04-15T17:07:58.552Z,63.60
2023-04-15T17:10:26.629Z,63.60
2023-04-15T17:12:54.549Z,63.70
2023-04-15T17:15:22.522Z,63.80
2023-04-15T17:17:51.829Z,63.90
2023-04-15T17:20:20.388Z,63.90
2023-04-15T17:22:48.927Z,63.80
2023-04-15T17:25:16.900Z,64.00
2023-04-15T17:27:44.960Z,64.00
2023-04-15T17:30:13.179Z,64.60
2023-04-15T17:32:42.620Z,65.20
2023-04-15T17:35:12.206Z,64.50
2023-04-15T17:37:44.462Z,64.10
2023-04-15T17:40:13.776Z,63.80
2023-04-15T17:42:46.121Z,63.60
2023-04-15T17:45:15.210Z,63.40
2023-04-15T17:47:43.169Z,63.30
2023-04-15T17:50:15.309Z,63.50
2023-04-15T17:52:43.240Z,63.70
2023-04-15T17:55:12.313Z,63.60
2023-04-15T17:57:40.194Z,63.60
2023-04-15T18:00:10.092Z,63.60
2023-04-15T18:02:41.474Z,63.80
2023-04-15T18:05:10.377Z,63.80
2023-04-15T18:07:39.769Z,63.70
2023-04-15T18:10:09.726Z,63.80
2023-04-15T18:12:37.637Z,63.90
2023-04-15T18:15:06.279Z,63.90
2023-04-15T18:17:34.157Z,64.00
2023-04-15T18:20:02.100Z,64.10
2023-04-15T18:22:30.002Z,63.90
2023-04-15T18:25:04.097Z,63.80
2023-04-15T18:27:32.367Z,63.50
2023-04-15T18:30:00.347Z,63.20
2023-04-15T18:32:31.942Z,63.20
2023-04-15T18:35:02.068Z,63.40
2023-04-15T18:37:30.360Z,63.30
2023-04-15T18:39:59.799Z,63.30
2023-04-15T18:42:27.729Z,63.40
2023-04-15T18:44:56.269Z,63.60
2023-04-15T18:47:25.263Z,63.60
2023-04-15T18:49:54.789Z,63.60
2023-04-15T18:52:22.755Z,63.60
2023-04-15T18:54:50.604Z,63.50
2023-04-15T18:57:22.822Z,63.60
2023-04-15T18:59:58.783Z,63.70
2023-04-15T19:02:26.758Z,63.80
2023-04-15T19:04:55.183Z,63.80
2023-04-15T19:07:23.942Z,63.70
2023-04-15T19:09:51.844Z,63.70
2023-04-15T19:12:21.096Z,63.80
2023-04-15T19:14:48.993Z,63.90
2023-04-15T19:17:16.884Z,63.80
2023-04-15T19:19:44.744Z,63.90
2023-04-15T19:22:12.637Z,63.70
2023-04-15T19:24:40.895Z,63.40
2023-04-15T19:27:08.785Z,63.20
2023-04-15T19:29:38.036Z,63.00
2023-04-15T19:32:06.561Z,63.00
2023-04-15T19:34:34.495Z,63.20
2023-04-15T19:37:02.398Z,63.20
2023-04-15T19:39:30.569Z,63.20
2023-04-15T19:41:58.875Z,63.20
2023-04-15T19:44:26.792Z,63.40
2023-04-15T19:46:56.054Z,63.50
2023-04-15T19:49:23.943Z,63.70
2023-04-15T19:51:51.888Z,63.50
2023-04-15T19:54:19.756Z,63.50
2023-04-15T19:56:47.651Z,63.70
2023-04-15T19:59:15.662Z,63.80
2023-04-15T20:01:43.548Z,63.80
2023-04-15T20:04:14.218Z,63.90
2023-04-15T20:06:42.152Z,63.70
2023-04-15T20:09:11.264Z,63.80
2023-04-15T20:12:48.133Z,63.80
2023-04-15T20:14:27.382Z,63.80
2023-04-15T20:16:55.447Z,63.90
2023-04-15T20:19:24.759Z,63.80
2023-04-15T20:21:53.924Z,63.70
2023-04-15T20:24:24.142Z,63.30
2023-04-15T20:26:52.097Z,63.00
2023-04-15T20:29:19.977Z,62.90
2023-04-15T20:31:48.021Z,63.20
2023-04-15T20:34:16.272Z,63.10
2023-04-15T20:36:45.591Z,63.10
2023-04-15T20:39:13.525Z,63.20
2023-04-15T20:41:41.480Z,63.30
2023-04-15T20:44:09.363Z,63.40
2023-04-15T20:46:37.417Z,63.50
2023-04-15T20:49:05.480Z,63.40
2023-04-15T20:51:37.477Z,63.50
2023-04-15T20:54:06.962Z,63.60
2023-04-15T20:56:34.851Z,63.70
2023-04-15T20:59:02.915Z,63.80
2023-04-15T21:01:31.133Z,63.60
2023-04-15T21:03:59.687Z,63.50
2023-04-15T21:06:30.818Z,63.30
2023-04-15T21:08:58.728Z,63.20
2023-04-15T21:11:46.350Z,63.20
2023-04-15T21:14:18.811Z,63.40
2023-04-15T21:16:46.840Z,63.30
2023-04-15T21:19:14.861Z,63.20
2023-04-15T21:21:42.726Z,63.40
2023-04-15T21:24:12.879Z,63.50
2023-04-15T21:26:42.175Z,63.70
2023-04-15T21:29:12.082Z,63.70
2023-04-15T21:31:43.508Z,64.00
2023-04-15T21:34:11.466Z,63.50
2023-04-15T21:36:39.534Z,63.70
2023-04-15T21:39:09.137Z,63.70
2023-04-15T21:41:37.752Z,63.80
2023-04-15T21:44:07.064Z,63.80
2023-04-15T21:46:35.927Z,63.70
2023-04-15T21:49:04.703Z,63.40
2023-04-15T21:51:32.855Z,63.20
2023-04-15T21:54:00.728Z,63.00
2023-04-15T21:56:28.655Z,63.70
2023-04-15T21:58:57.495Z,63.30
2023-04-15T22:01:27.064Z,63.20
2023-04-15T22:03:55.252Z,63.20
2023-04-15T22:06:23.234Z,63.20
2023-04-15T22:08:56.951Z,63.40
2023-04-15T22:11:30.343Z,63.50
2023-04-15T22:13:58.415Z,63.60
2023-04-15T22:16:27.716Z,63.50
2023-04-15T22:18:55.753Z,63.30
2023-04-15T22:21:23.714Z,63.30
2023-04-15T22:23:52.130Z,63.20
2023-04-15T22:26:20.295Z,63.30
2023-04-15T22:28:48.228Z,63.50
2023-04-15T22:31:16.272Z,63.40
2023-04-15T22:33:45.603Z,63.40
2023-04-15T22:36:13.656Z,63.50
2023-04-15T22:38:41.616Z,63.50
2023-04-15T22:41:09.519Z,63.60
2023-04-15T22:43:37.447Z,63.50
2023-04-15T22:46:05.498Z,63.40
2023-04-15T22:48:33.440Z,63.20
2023-04-15T22:51:03.063Z,63.00
2023-04-15T22:53:31.353Z,63.00
2023-04-15T22:55:59.261Z,63.10
2023-04-15T22:58:27.180Z,63.90
2023-04-15T23:00:55.207Z,63.00
2023-04-15T23:03:23.193Z,63.10
2023-04-15T23:05:51.278Z,63.30
2023-04-15T23:08:20.537Z,63.40
2023-04-15T23:10:49.758Z,63.40
2023-04-15T23:13:17.612Z,63.40
2023-04-15T23:15:47.845Z,63.30
2023-04-15T23:18:15.801Z,63.50
2023-04-15T23:20:43.690Z,63.50
2023-04-15T23:23:11.634Z,63.50
2023-04-15T23:25:40.955Z,63.50
2023-04-15T23:28:08.891Z,63.50
2023-04-15T23:30:36.750Z,63.20
2023-04-15T23:33:04.830Z,63.00
2023-04-15T23:35:32.736Z,62.90
2023-04-15T23:38:00.652Z,62.80
2023-04-15T23:40:28.587Z,63.00
2023-04-15T23:42:57.850Z,63.00
2023-04-15T23:45:25.899Z,63.00
2023-04-15T23:47:53.942Z,63.10
2023-04-15T23:50:21.843Z,63.20
2023-04-15T23:52:49.751Z,63.30
2023-04-15T23:55:17.657Z,63.50
2023-04-15T23:57:45.638Z,63.40
